YLVT weather

CLOSED RAAF Williams, Laverton Base
Laverton, Victoria, Australia

Public forecast

Using degrees Celsius for public forecast. Weather courtesy of forecast.io.

METAR (pilot weather report)

Closest report is Melbourne Essendon Airport, 11.0 nm (20.4 km) NE. Retrieved 2019/01/21 13:30 UTC (12 minutes ago):

YMEN 211330Z AUTO 23006KT 9999 // OVC011 19/17 Q1015

TAF (pilot weather forecast)

Closest forecast is Melbourne International Airport, 12.3 nm (22.8 km) NNE. Retrieved 2019/01/21 12:00 UTC (2 hours ago):

TAF YMML 211106Z 2112/2218 20007KT 9999 BKN010 FM211400 26006KT 9999 BKN006 BECMG 2121/2123 VRB05KT CAVOK FM220300 16014KT CAVOK BECMG 2211/2212 19008KT 9999 BKN008